Time;durP1;ratioP1;P1;durP2;ratioP2;P2;SDS_P1;SDS_P2;PMS_P1;PMS_P2;Temp;Humidity;BMP_temperature;BMP_pressure;BME280_temperature;BME280_humidity;BME280_pressure;Samples;Min_cycle;Max_cycle;Signal;HPM_P1;HPM_P2
2022/11/15 00:00:39;;;;;;;5.43;2.53;;;23.40;51.80;;;;;;5051139;28;20292;-49
2022/11/15 00:03:09;;;;;;;2.92;1.88;;;23.50;51.80;;;;;;5050793;28;20222;-46
2022/11/15 00:05:40;;;;;;;3.78;1.95;;;23.50;51.80;;;;;;5050643;28;20207;-47
2022/11/15 00:08:11;;;;;;;4.43;2.25;;;23.50;51.80;;;;;;5050567;28;20537;-52
2022/11/15 00:10:42;;;;;;;5.07;2.40;;;23.50;51.90;;;;;;5050450;28;20226;-50
2022/11/15 00:13:15;;;;;;;5.78;2.25;;;23.50;52.50;;;;;;5050135;28;20233;-46
2022/11/15 00:15:48;;;;;;;3.60;1.95;;;23.60;51.80;;;;;;5050757;28;20253;-51
2022/11/15 00:18:19;;;;;;;5.93;2.10;;;23.60;51.70;;;;;;5050070;28;20199;-48
2022/11/15 00:20:50;;;;;;;4.38;2.25;;;23.60;51.70;;;;;;5063274;22;20382;-46
2022/11/15 00:23:21;;;;;;;5.57;2.50;;;23.70;51.70;;;;;;5050739;28;20202;-43
2022/11/15 00:25:58;;;;;;;8.90;2.83;;;23.70;51.70;;;;;;5050288;28;20214;-42
2022/11/15 00:28:29;;;;;;;7.55;2.22;;;23.70;51.70;;;;;;5036865;28;20192;-44
2022/11/15 00:31:07;;;;;;;5.90;2.55;;;23.70;51.70;;;;;;5030807;28;20216;-42
2022/11/15 00:33:38;;;;;;;4.25;2.17;;;23.80;51.80;;;;;;5037634;28;20229;-42
2022/11/15 00:36:11;;;;;;;5.32;2.05;;;23.80;51.80;;;;;;5045244;28;20206;-42
2022/11/15 00:38:42;;;;;;;4.43;2.28;;;23.80;51.80;;;;;;5050286;28;20245;-43
2022/11/15 00:41:13;;;;;;;5.10;2.50;;;23.80;51.80;;;;;;5035726;28;20761;-41
2022/11/15 00:43:43;;;;;;;6.25;2.35;;;23.80;51.80;;;;;;5036931;28;20192;-42
2022/11/15 00:46:16;;;;;;;5.60;2.38;;;23.80;51.90;;;;;;5051455;28;20229;-43
2022/11/15 00:48:47;;;;;;;4.95;2.05;;;23.80;51.80;;;;;;5049863;28;20188;-44
2022/11/15 00:51:18;;;;;;;7.90;2.50;;;23.80;51.80;;;;;;5050494;28;20691;-43
2022/11/15 00:53:49;;;;;;;5.15;2.72;;;23.90;51.80;;;;;;5030553;28;20569;-44
2022/11/15 00:56:20;;;;;;;7.50;2.28;;;23.90;52.00;;;;;;5030395;28;20203;-46
2022/11/15 00:58:50;;;;;;;5.72;2.50;;;23.90;52.00;;;;;;5030107;28;20207;-43
2022/11/15 01:01:23;;;;;;;6.65;3.22;;;24.00;52.10;;;;;;5030543;28;20216;-46
2022/11/15 01:03:54;;;;;;;8.38;2.80;;;24.00;52.10;;;;;;5030327;28;20196;-43
2022/11/15 01:06:24;;;;;;;6.50;2.88;;;24.10;52.10;;;;;;5042750;28;20192;-43
2022/11/15 01:08:55;;;;;;;6.13;2.67;;;24.10;52.10;;;;;;5034534;28;20196;-52
2022/11/15 01:11:26;;;;;;;8.15;3.00;;;24.10;52.10;;;;;;5048497;28;20216;-49
2022/11/15 01:13:57;;;;;;;8.18;3.25;;;24.20;52.20;;;;;;5048023;28;20219;-48
2022/11/15 01:16:29;;;;;;;7.28;2.47;;;24.20;52.10;;;;;;5030990;28;20648;-42
2022/11/15 01:21:41;;;;;;;6.18;2.40;;;24.20;52.10;;;;;;5047252;28;20282;-48
2022/11/15 01:24:15;;;;;;;8.02;3.25;;;24.30;52.10;;;;;;5050143;28;20253;-46
2022/11/15 01:26:46;;;;;;;7.80;2.90;;;24.30;52.10;;;;;;5050111;28;20206;-47
2022/11/15 01:29:17;;;;;;;8.77;3.40;;;24.30;52.10;;;;;;5050400;28;20198;-51
2022/11/15 01:31:50;;;;;;;8.98;3.35;;;24.30;52.00;;;;;;5049963;28;20211;-50
2022/11/15 01:34:20;;;;;;;5.00;2.88;;;24.40;52.10;;;;;;5050193;28;20231;-48
2022/11/15 01:36:51;;;;;;;5.57;2.90;;;24.40;52.00;;;;;;5049923;28;20206;-49
2022/11/15 01:39:22;;;;;;;7.07;2.70;;;24.40;52.00;;;;;;5049913;28;20196;-49
2022/11/15 01:41:53;;;;;;;7.05;2.40;;;24.50;52.00;;;;;;5053092;28;20200;-54
2022/11/15 01:44:44;;;;;;;8.57;3.05;;;24.50;52.00;;;;;;5054191;28;20659;-50
2022/11/15 01:47:21;;;;;;;7.90;3.10;;;24.50;52.00;;;;;;5053439;28;20674;-46
2022/11/15 01:49:57;;;;;;;6.38;2.58;;;24.50;52.00;;;;;;5053984;28;20578;-53
2022/11/15 01:52:31;;;;;;;6.32;2.80;;;24.60;52.00;;;;;;5053407;28;20658;-48
2022/11/15 01:55:06;;;;;;;7.68;2.88;;;24.60;52.00;;;;;;5034498;28;20215;-47
2022/11/15 01:57:37;;;;;;;7.03;2.53;;;24.60;52.00;;;;;;5034358;28;20226;-46
2022/11/15 02:00:09;;;;;;;4.30;2.33;;;24.70;52.00;;;;;;5033922;28;20216;-47
2022/11/15 02:02:42;;;;;;;6.03;2.47;;;24.70;51.90;;;;;;5033707;28;20363;-48
2022/11/15 02:05:13;;;;;;;6.95;2.90;;;24.70;51.90;;;;;;5041061;28;20199;-50
2022/11/15 02:07:44;;;;;;;7.10;2.70;;;24.70;51.80;;;;;;5054142;28;20198;-47
2022/11/15 02:10:19;;;;;;;6.15;2.80;;;24.70;51.80;;;;;;5053771;28;20582;-61
2022/11/15 02:12:51;;;;;;;6.20;2.40;;;24.80;51.70;;;;;;5053346;28;20209;-53
2022/11/15 02:15:22;;;;;;;5.38;2.88;;;24.80;51.70;;;;;;5053900;28;20202;-50
2022/11/15 02:18:10;;;;;;;4.38;2.20;;;24.80;51.60;;;;;;5053328;28;20647;-49
2022/11/15 02:20:59;;;;;;;9.45;3.30;;;24.90;52.30;;;;;;5053725;28;20269;-53
2022/11/15 02:24:12;;;;;;;8.73;3.47;;;24.90;51.60;;;;;;5053324;28;20674;-55
2022/11/15 02:27:11;;;;;;;4.82;2.58;;;24.90;51.50;;;;;;5053133;28;20692;-56
2022/11/15 02:30:01;;;;;;;5.68;2.70;;;24.90;51.50;;;;;;5012850;28;20583;-53
2022/11/15 02:32:41;;;;;;;6.97;2.83;;;25.00;51.50;;;;;;5052790;28;20753;-56
2022/11/15 02:35:20;;;;;;;6.80;2.83;;;25.00;51.30;;;;;;5040625;28;20202;-57
2022/11/15 02:37:56;;;;;;;7.20;2.90;;;25.00;51.20;;;;;;5053213;28;20206;-48
2022/11/15 02:40:36;;;;;;;5.75;2.72;;;25.10;51.20;;;;;;5053081;28;20230;-50
2022/11/15 02:46:04;;;;;;;7.78;2.92;;;25.10;51.00;;;;;;5053769;28;20712;-49
2022/11/15 02:48:38;;;;;;;7.78;3.00;;;25.10;51.00;;;;;;5053270;28;20191;-54
2022/11/15 02:51:09;;;;;;;4.88;2.67;;;25.20;51.00;;;;;;5052866;28;20215;-50
2022/11/15 02:53:40;;;;;;;4.93;2.33;;;25.20;51.00;;;;;;5052158;28;20227;-54
2022/11/15 02:56:14;;;;;;;6.72;3.10;;;25.20;51.00;;;;;;5053114;28;20195;-50
2022/11/15 02:59:07;;;;;;;5.55;3.15;;;25.30;51.10;;;;;;5053149;28;20246;-48
2022/11/15 03:01:50;;;;;;;5.68;2.60;;;25.30;51.10;;;;;;5052029;28;20246;-53
2022/11/15 03:04:31;;;;;;;5.15;2.95;;;25.30;51.10;;;;;;5052138;28;20192;-52
2022/11/15 03:07:08;;;;;;;3.92;2.55;;;25.30;51.00;;;;;;5052346;28;20192;-51
2022/11/15 03:09:42;;;;;;;5.18;2.55;;;25.30;50.90;;;;;;5051823;28;20215;-47
2022/11/15 03:12:21;;;;;;;3.88;2.78;;;25.40;50.90;;;;;;5052607;28;20207;-47
2022/11/15 03:14:57;;;;;;;5.32;2.75;;;25.40;50.70;;;;;;5068995;28;20218;-47
2022/11/15 03:17:31;;;;;;;5.85;2.83;;;25.50;50.60;;;;;;5072002;28;20194;-46
2022/11/15 03:20:06;;;;;;;7.32;2.90;;;25.50;50.50;;;;;;5078956;22;20289;-46
2022/11/15 03:22:40;;;;;;;6.50;2.50;;;25.50;50.50;;;;;;5051890;28;20195;-50
2022/11/15 03:25:13;;;;;;;4.93;2.58;;;25.60;50.50;;;;;;5059437;28;20197;-44
2022/11/15 03:27:47;;;;;;;5.22;2.65;;;25.60;50.50;;;;;;5072399;28;20199;-48
2022/11/15 03:30:19;;;;;;;7.03;3.00;;;25.60;50.50;;;;;;5080106;28;20543;-50
2022/11/15 03:32:53;;;;;;;4.40;2.90;;;25.60;50.40;;;;;;5084666;28;20651;-45
2022/11/15 03:35:27;;;;;;;4.63;2.80;;;25.70;50.40;;;;;;5083403;28;20712;-44
2022/11/15 03:38:03;;;;;;;5.55;2.90;;;25.70;50.40;;;;;;5072197;28;20194;-45
2022/11/15 03:40:40;;;;;;;5.40;2.50;;;25.70;50.40;;;;;;5071971;28;20218;-43
2022/11/15 03:43:17;;;;;;;4.47;2.60;;;25.80;50.40;;;;;;5072258;28;20197;-44
2022/11/15 03:45:53;;;;;;;3.65;2.47;;;25.80;50.30;;;;;;5072228;28;20198;-46
2022/11/15 03:48:26;;;;;;;4.95;2.75;;;25.80;50.30;;;;;;5075680;28;20225;-44
2022/11/15 03:51:00;;;;;;;7.10;3.22;;;25.90;50.20;;;;;;5075348;28;20214;-49
2022/11/15 03:53:31;;;;;;;4.28;2.50;;;25.90;50.10;;;;;;5080465;28;20223;-48
2022/11/15 03:56:03;;;;;;;5.38;2.75;;;25.90;50.10;;;;;;5071329;28;20716;-49
2022/11/15 03:58:34;;;;;;;4.38;2.72;;;26.00;50.10;;;;;;5071620;28;20199;-46
2022/11/15 04:01:04;;;;;;;5.22;2.63;;;26.00;50.00;;;;;;5075425;28;20241;-46
2022/11/15 04:03:35;;;;;;;6.75;3.05;;;26.00;50.00;;;;;;5083870;28;20206;-45
2022/11/15 04:06:08;;;;;;;5.22;2.80;;;26.00;49.90;;;;;;5077039;28;20198;-44
2022/11/15 04:08:39;;;;;;;4.85;2.80;;;26.10;50.00;;;;;;5071867;28;20297;-46
2022/11/15 04:11:10;;;;;;;3.70;2.75;;;26.10;49.90;;;;;;5071698;28;20218;-45
2022/11/15 04:13:40;;;;;;;7.05;2.88;;;26.10;49.90;;;;;;5071701;28;20222;-43
2022/11/15 04:16:11;;;;;;;5.00;2.58;;;26.20;49.90;;;;;;5071254;28;20575;-48
2022/11/15 04:18:42;;;;;;;3.67;2.30;;;26.20;49.90;;;;;;5070518;28;20198;-45
2022/11/15 04:24:16;;;;;;;4.00;2.80;;;26.20;49.90;;;;;;5051084;28;20234;-49
2022/11/15 04:26:47;;;;;;;4.00;2.30;;;26.20;49.90;;;;;;5050958;28;20195;-48
2022/11/15 04:32:04;;;;;;;4.95;2.22;;;26.30;49.80;;;;;;5051540;28;20202;-54
2022/11/15 04:34:35;;;;;;;3.97;2.50;;;26.30;49.80;;;;;;5049379;28;20227;-57
2022/11/15 04:37:13;;;;;;;4.60;2.55;;;26.40;49.70;;;;;;5031187;28;20233;-58
2022/11/15 04:39:45;;;;;;;4.43;2.40;;;26.40;49.70;;;;;;5041606;28;20234;-52
2022/11/15 04:42:15;;;;;;;5.18;2.65;;;26.40;49.70;;;;;;5051089;28;20195;-51
2022/11/15 04:44:46;;;;;;;5.03;2.60;;;26.40;49.50;;;;;;5051284;28;20204;-53
2022/11/15 04:47:18;;;;;;;4.93;2.33;;;26.50;49.20;;;;;;5051165;28;20195;-50
2022/11/15 04:49:49;;;;;;;4.55;2.70;;;26.50;49.40;;;;;;5050637;28;20238;-52
2022/11/15 04:52:22;;;;;;;4.50;2.60;;;26.50;49.30;;;;;;5050973;28;20206;-53
2022/11/15 04:54:52;;;;;;;5.82;2.95;;;26.50;49.30;;;;;;5050531;28;20230;-53
2022/11/15 04:57:23;;;;;;;5.90;2.53;;;26.50;49.20;;;;;;5050746;28;20195;-52
2022/11/15 04:59:54;;;;;;;5.72;2.85;;;26.50;49.20;;;;;;5050315;28;20230;-46
2022/11/15 05:04:18;;;;;;;3.17;2.30;;;26.50;49.30;;;;;;5050131;28;20221;-45
2022/11/15 05:05:14;;;;;;;3.20;2.30;;;26.50;49.40;;;;;;5043030;28;20204;-50
2022/11/15 05:07:46;;;;;;;3.60;2.70;;;26.50;49.30;;;;;;5032339;28;20213;-52
2022/11/15 05:10:18;;;;;;;4.80;2.58;;;26.50;49.30;;;;;;5038082;28;20226;-51
2022/11/15 05:12:50;;;;;;;4.30;2.50;;;26.60;49.40;;;;;;5050410;28;20195;-48
2022/11/15 05:15:21;;;;;;;3.40;2.28;;;26.60;49.40;;;;;;5012494;28;20228;-51
2022/11/15 05:17:51;;;;;;;4.78;2.42;;;26.60;49.20;;;;;;5015083;28;20197;-45
2022/11/15 05:20:22;;;;;;;5.28;2.50;;;26.60;49.70;;;;;;5015282;28;20304;-53
2022/11/15 05:22:55;;;;;;;4.97;2.90;;;26.70;49.10;;;;;;5014509;28;20200;-49
2022/11/15 05:25:26;;;;;;;4.07;2.50;;;26.60;49.00;;;;;;5014637;28;20196;-51
2022/11/15 05:27:58;;;;;;;4.20;2.40;;;26.60;49.00;;;;;;5043361;28;20199;-46
2022/11/15 05:30:28;;;;;;;3.75;2.47;;;26.70;49.00;;;;;;5017045;28;20590;-49
2022/11/15 05:32:59;;;;;;;4.68;2.30;;;26.70;48.90;;;;;;5014065;28;20197;-51
2022/11/15 05:35:35;;;;;;;4.78;2.50;;;26.60;48.80;;;;;;5027414;28;20584;-51
2022/11/15 05:38:07;;;;;;;5.78;2.65;;;26.60;48.90;;;;;;5035023;28;20200;-51
2022/11/15 05:40:38;;;;;;;5.05;2.50;;;26.60;49.00;;;;;;5034190;28;20719;-50
2022/11/15 05:43:09;;;;;;;7.15;2.53;;;26.60;49.00;;;;;;5034352;28;20207;-48
2022/11/15 05:45:40;;;;;;;3.92;2.38;;;26.60;49.00;;;;;;5034608;28;20230;-52
2022/11/15 05:48:12;;;;;;;4.60;2.70;;;26.60;49.00;;;;;;5034306;28;20192;-52
2022/11/15 05:50:46;;;;;;;5.07;2.50;;;26.60;49.00;;;;;;5034007;28;20217;-49
2022/11/15 05:53:21;;;;;;;4.93;2.60;;;26.60;49.00;;;;;;5033938;28;20200;-47
2022/11/15 05:55:53;;;;;;;5.85;2.72;;;26.60;49.00;;;;;;5034077;28;20224;-49
2022/11/15 05:58:24;;;;;;;5.13;2.80;;;26.60;49.00;;;;;;5034183;28;20196;-49
2022/11/15 06:00:56;;;;;;;4.20;2.50;;;26.60;49.00;;;;;;5033820;28;20227;-52
2022/11/15 06:03:27;;;;;;;4.28;2.35;;;26.60;48.90;;;;;;5033983;28;20199;-48
2022/11/15 06:05:58;;;;;;;5.00;2.78;;;26.60;48.90;;;;;;5034359;28;20212;-52
2022/11/15 06:08:31;;;;;;;6.35;2.80;;;26.60;48.80;;;;;;5034192;28;20640;-49
2022/11/15 06:11:07;;;;;;;4.50;2.20;;;26.60;48.80;;;;;;5034068;28;20708;-52
2022/11/15 06:13:38;;;;;;;4.80;2.50;;;26.50;48.70;;;;;;5033499;28;20195;-49
2022/11/15 06:16:09;;;;;;;4.80;2.38;;;26.50;48.80;;;;;;5013944;28;20225;-48
2022/11/15 06:18:40;;;;;;;4.65;2.42;;;26.50;48.90;;;;;;5013854;28;20208;-51
2022/11/15 06:21:11;;;;;;;3.95;2.28;;;26.50;48.90;;;;;;5014196;28;20235;-52
2022/11/15 06:23:43;;;;;;;4.35;2.25;;;26.50;48.90;;;;;;5013648;28;20675;-48
2022/11/15 06:26:14;;;;;;;5.30;2.47;;;26.50;48.90;;;;;;5012974;28;20204;-50
2022/11/15 06:28:45;;;;;;;3.38;2.30;;;26.50;49.00;;;;;;5013733;28;20616;-50
2022/11/15 06:31:16;;;;;;;3.58;2.40;;;26.40;48.80;;;;;;5013852;28;20216;-52
2022/11/15 06:33:47;;;;;;;6.15;2.72;;;26.40;48.80;;;;;;5013876;28;20197;-48
2022/11/15 06:36:18;;;;;;;3.45;2.08;;;26.40;48.80;;;;;;5029816;28;20243;-53
2022/11/15 06:38:50;;;;;;;4.40;2.50;;;26.40;48.80;;;;;;5033393;28;20600;-47
2022/11/15 06:41:21;;;;;;;5.63;2.65;;;26.40;48.80;;;;;;5033274;28;20223;-56
2022/11/15 06:43:52;;;;;;;4.05;2.20;;;26.40;48.80;;;;;;5033348;28;20196;-47
2022/11/15 06:46:22;;;;;;;4.18;2.35;;;26.30;48.80;;;;;;5033785;28;20215;-58
2022/11/15 06:48:55;;;;;;;3.30;2.00;;;26.30;48.80;;;;;;5033486;28;20207;-48
2022/11/15 06:51:25;;;;;;;5.35;2.47;;;26.30;48.70;;;;;;5033357;28;20224;-46
2022/11/15 06:53:58;;;;;;;4.75;2.35;;;26.30;48.80;;;;;;5033086;28;20204;-51
2022/11/15 06:56:29;;;;;;;4.30;2.53;;;26.30;48.80;;;;;;5032693;28;20231;-47
2022/11/15 06:58:59;;;;;;;5.05;2.53;;;26.20;48.80;;;;;;5032731;28;20196;-46
2022/11/15 07:01:30;;;;;;;2.92;2.13;;;26.20;48.90;;;;;;5033022;28;20224;-46
2022/11/15 07:04:01;;;;;;;4.72;2.10;;;26.20;48.80;;;;;;5032636;28;20200;-48
2022/11/15 07:06:32;;;;;;;4.00;2.10;;;26.20;48.90;;;;;;5032987;28;20204;-49
2022/11/15 07:09:06;;;;;;;3.95;2.40;;;26.20;48.90;;;;;;5032756;28;20204;-50
2022/11/15 07:11:37;;;;;;;4.20;2.80;;;26.20;48.90;;;;;;5032671;28;20216;-49
2022/11/15 07:14:08;;;;;;;4.95;2.45;;;26.10;48.80;;;;;;5033127;28;20214;-50
2022/11/15 07:16:40;;;;;;;3.92;2.20;;;26.10;48.90;;;;;;5031901;28;20196;-47
2022/11/15 07:19:13;;;;;;;3.17;1.88;;;26.10;48.80;;;;;;5030717;28;20196;-49
2022/11/15 07:21:44;;;;;;;4.88;2.53;;;26.10;48.90;;;;;;5029928;28;20228;-46
2022/11/15 07:24:21;;;;;;;5.47;2.40;;;26.00;48.80;;;;;;5032754;28;20200;-48
2022/11/15 07:26:51;;;;;;;3.55;2.15;;;26.00;48.90;;;;;;5032926;28;20210;-47
2022/11/15 07:29:23;;;;;;;4.95;2.13;;;25.90;48.80;;;;;;5032684;28;20196;-46
2022/11/15 07:31:53;;;;;;;4.05;2.33;;;25.90;48.90;;;;;;5032803;28;20230;-51
2022/11/15 07:34:25;;;;;;;3.15;2.05;;;25.90;48.90;;;;;;5032581;28;20203;-51
2022/11/15 07:36:55;;;;;;;4.32;2.17;;;25.90;48.90;;;;;;5032574;28;20247;-50
2022/11/15 07:39:28;;;;;;;3.50;2.13;;;25.90;49.00;;;;;;5030973;28;20197;-51
2022/11/15 07:44:42;;;;;;;3.95;2.40;;;25.80;48.90;;;;;;5031922;28;20196;-48
2022/11/15 07:47:13;;;;;;;4.65;2.47;;;25.80;48.80;;;;;;5032435;28;20656;-51
2022/11/15 07:49:47;;;;;;;6.78;2.70;;;25.80;48.90;;;;;;5031879;28;20200;-46
2022/11/15 07:52:18;;;;;;;5.65;2.97;;;25.70;48.90;;;;;;5032140;28;20232;-46
2022/11/15 07:54:51;;;;;;;5.18;2.85;;;25.80;49.00;;;;;;5032141;28;20235;-46
2022/11/15 07:57:22;;;;;;;4.05;2.47;;;25.70;48.90;;;;;;5031754;28;20285;-48
2022/11/15 07:59:52;;;;;;;7.20;3.15;;;25.70;49.00;;;;;;5032046;28;20229;-50
2022/11/15 08:02:24;;;;;;;5.20;2.45;;;25.60;48.90;;;;;;5032099;28;20203;-54
2022/11/15 08:04:55;;;;;;;4.78;2.75;;;25.60;48.90;;;;;;5032041;28;20262;-52
2022/11/15 08:07:26;;;;;;;3.78;2.83;;;25.60;49.00;;;;;;5032157;28;20207;-53
2022/11/15 08:10:00;;;;;;;4.43;2.83;;;25.60;49.00;;;;;;5032029;28;20686;-50
2022/11/15 08:12:32;;;;;;;4.00;2.78;;;25.60;49.00;;;;;;5031607;28;20603;-51
2022/11/15 08:15:03;;;;;;;3.35;2.50;;;25.50;49.00;;;;;;5031606;28;20228;-55
2022/11/15 08:17:34;;;;;;;5.28;2.75;;;25.50;48.90;;;;;;5031647;28;20200;-52
2022/11/15 08:20:04;;;;;;;5.13;2.67;;;25.50;49.00;;;;;;5031624;28;20227;-54
2022/11/15 08:22:36;;;;;;;4.93;2.67;;;25.50;48.90;;;;;;5031366;28;20246;-56
2022/11/15 08:25:09;;;;;;;4.50;2.78;;;25.50;49.00;;;;;;5032018;28;20215;-49
2022/11/15 08:27:40;;;;;;;6.05;2.63;;;25.50;49.00;;;;;;5031670;28;20203;-51
2022/11/15 08:30:11;;;;;;;4.53;2.75;;;25.40;49.00;;;;;;5031282;28;20691;-53
2022/11/15 08:32:42;;;;;;;5.35;3.00;;;25.40;49.00;;;;;;5031556;28;20200;-53
2022/11/15 08:35:13;;;;;;;5.03;2.38;;;25.40;49.00;;;;;;5031490;28;20239;-53
2022/11/15 08:37:43;;;;;;;5.28;3.20;;;25.40;49.00;;;;;;5031550;28;20203;-48
2022/11/15 08:40:18;;;;;;;4.93;2.60;;;25.30;49.00;;;;;;5031284;28;20216;-52
2022/11/15 08:42:50;;;;;;;5.60;2.70;;;25.30;49.00;;;;;;5031115;28;20207;-49
2022/11/15 08:45:21;;;;;;;5.70;2.83;;;25.30;49.00;;;;;;5031154;28;20686;-48
2022/11/15 08:47:52;;;;;;;5.03;2.80;;;25.30;49.10;;;;;;5031505;28;20196;-49
2022/11/15 08:50:23;;;;;;;3.92;2.58;;;25.30;49.10;;;;;;5030704;28;20729;-56
2022/11/15 08:52:54;;;;;;;5.28;2.47;;;25.30;49.10;;;;;;5031101;28;20207;-48
2022/11/15 08:55:27;;;;;;;7.38;3.13;;;25.30;49.10;;;;;;5031063;28;20223;-54
2022/11/15 08:58:00;;;;;;;3.55;2.78;;;25.20;49.10;;;;;;5031218;28;20231;-51
2022/11/15 09:00:30;;;;;;;5.78;2.67;;;25.20;49.10;;;;;;5030703;28;20227;-48
2022/11/15 09:03:01;;;;;;;4.45;2.70;;;25.20;49.10;;;;;;5030816;28;20199;-54
2022/11/15 09:05:32;;;;;;;4.60;2.92;;;25.10;49.10;;;;;;5030753;28;20200;-47
2022/11/15 09:08:03;;;;;;;4.00;2.72;;;25.10;49.10;;;;;;5030778;28;20231;-52
2022/11/15 09:10:36;;;;;;;5.60;3.50;;;25.10;49.10;;;;;;5030832;28;20576;-50
2022/11/15 09:13:07;;;;;;;4.13;2.83;;;25.10;49.10;;;;;;5031001;28;20203;-50
2022/11/15 09:15:37;;;;;;;4.82;2.80;;;25.10;49.20;;;;;;5027450;28;20580;-52
2022/11/15 09:18:08;;;;;;;4.57;3.03;;;25.00;49.20;;;;;;5030649;28;20196;-50
2022/11/15 09:20:39;;;;;;;6.97;2.97;;;25.00;49.20;;;;;;5013782;28;20220;-48
2022/11/15 09:23:10;;;;;;;5.70;3.10;;;25.00;49.20;;;;;;5011355;28;20197;-56
2022/11/15 09:25:42;;;;;;;3.10;2.17;;;25.00;49.20;;;;;;5011459;28;20204;-51
2022/11/15 09:28:13;;;;;;;3.75;2.45;;;24.90;49.20;;;;;;5011535;28;20197;-52
2022/11/15 09:30:44;;;;;;;3.90;2.85;;;24.90;49.20;;;;;;5011197;28;20719;-56
2022/11/15 09:33:15;;;;;;;5.15;2.70;;;24.90;49.20;;;;;;5010892;28;20201;-48
2022/11/15 09:35:46;;;;;;;6.30;3.10;;;24.90;49.20;;;;;;5022731;28;20707;-57
2022/11/15 09:38:17;;;;;;;4.20;2.60;;;24.90;49.30;;;;;;5030602;28;20203;-60
2022/11/15 09:40:56;;;;;;;4.35;2.80;;;24.90;49.40;;;;;;5030367;28;20212;-60
2022/11/15 09:43:41;;;;;;;5.45;2.97;;;24.80;49.30;;;;;;5030416;28;20200;-53
2022/11/15 09:46:18;;;;;;;4.28;2.92;;;24.80;49.40;;;;;;5030290;28;20679;-55
2022/11/15 09:48:57;;;;;;;5.97;3.10;;;24.80;49.40;;;;;;5016290;28;20545;-54
2022/11/15 09:51:32;;;;;;;4.90;3.13;;;24.70;49.30;;;;;;5009841;28;20212;-48
2022/11/15 09:54:12;;;;;;;4.68;3.17;;;24.70;49.40;;;;;;5022349;28;20558;-59
2022/11/15 09:56:46;;;;;;;6.82;3.35;;;24.70;49.40;;;;;;5033102;28;20277;-47
2022/11/15 09:59:46;;;;;;;4.55;2.97;;;24.70;50.00;;;;;;5049260;28;20207;-56
2022/11/15 10:02:43;;;;;;;6.05;2.97;;;24.70;49.50;;;;;;5051702;28;20673;-55
2022/11/15 10:05:18;;;;;;;4.68;3.17;;;24.70;49.50;;;;;;5029890;28;20545;-49
2022/11/15 10:07:56;;;;;;;4.45;3.03;;;24.60;49.40;;;;;;5014137;28;20207;-57
2022/11/15 10:10:33;;;;;;;6.68;3.35;;;24.60;49.50;;;;;;5051793;28;20219;-53
2022/11/15 10:13:07;;;;;;;5.78;3.25;;;24.60;49.50;;;;;;5053929;28;20227;-57
2022/11/15 10:15:37;;;;;;;6.00;3.20;;;24.50;49.50;;;;;;5052990;28;20255;-50
2022/11/15 10:18:28;;;;;;;5.53;3.28;;;24.50;49.50;;;;;;5053082;28;20191;-56
2022/11/15 10:21:02;;;;;;;4.38;3.08;;;24.50;49.50;;;;;;5053498;28;20609;-54
2022/11/15 10:23:34;;;;;;;4.65;3.20;;;24.50;49.50;;;;;;5052905;28;20213;-54
2022/11/15 10:26:10;;;;;;;4.95;3.10;;;24.40;49.50;;;;;;5052664;28;20195;-57
2022/11/15 10:28:43;;;;;;;5.05;3.03;;;24.50;49.60;;;;;;5053265;28;20215;-59
2022/11/15 10:31:26;;;;;;;4.20;3.00;;;24.40;49.60;;;;;;5052293;28;20214;-58
2022/11/15 10:34:08;;;;;;;6.47;3.30;;;24.40;49.60;;;;;;5052873;28;20203;-56
2022/11/15 10:36:39;;;;;;;6.20;3.17;;;24.30;49.50;;;;;;5032888;28;20232;-52
2022/11/15 10:39:14;;;;;;;5.88;3.33;;;24.30;49.50;;;;;;5032806;28;20196;-52
2022/11/15 10:41:46;;;;;;;5.63;3.40;;;24.30;49.50;;;;;;5027784;28;20251;-49
2022/11/15 10:44:27;;;;;;;4.63;3.03;;;24.30;49.50;;;;;;5013320;28;20204;-51
2022/11/15 10:47:41;;;;;;;5.82;3.22;;;24.30;49.60;;;;;;5013577;28;20192;-47
2022/11/15 10:50:30;;;;;;;3.90;3.03;;;24.30;49.60;;;;;;4977085;28;20216;-55
2022/11/15 10:53:04;;;;;;;7.40;3.20;;;24.20;49.60;;;;;;5013300;28;20582;-52
2022/11/15 10:55:36;;;;;;;4.68;3.25;;;24.20;49.60;;;;;;5012345;28;20689;-52
2022/11/15 10:58:22;;;;;;;5.32;3.05;;;24.20;49.70;;;;;;5012890;28;20701;-54
2022/11/15 11:00:56;;;;;;;5.25;3.22;;;24.20;49.70;;;;;;5012423;28;20220;-57
2022/11/15 11:03:37;;;;;;;5.03;3.28;;;24.20;49.70;;;;;;5013478;28;20200;-52
2022/11/15 11:06:10;;;;;;;5.47;3.00;;;24.10;49.70;;;;;;5027291;28;20682;-52
2022/11/15 11:08:41;;;;;;;5.40;3.00;;;24.10;49.70;;;;;;5028741;28;20197;-57
2022/11/15 11:11:12;;;;;;;5.63;3.28;;;24.10;49.70;;;;;;5032308;28;20216;-52
2022/11/15 11:13:43;;;;;;;5.85;3.60;;;24.10;49.70;;;;;;5032344;28;20203;-54
2022/11/15 11:16:43;;;;;;;4.07;2.90;;;24.10;49.70;;;;;;5032559;28;20228;-49
2022/11/15 11:19:41;;;;;;;4.05;2.63;;;24.00;49.70;;;;;;5031818;28;20435;-57
2022/11/15 11:22:23;;;;;;;4.35;3.25;;;24.00;49.70;;;;;;5027818;28;20211;-59
2022/11/15 11:25:06;;;;;;;4.13;2.72;;;24.00;49.70;;;;;;5031868;28;20496;-49
2022/11/15 11:27:47;;;;;;;4.75;3.10;;;24.00;49.80;;;;;;5031672;28;20250;-57
2022/11/15 11:30:20;;;;;;;6.13;3.20;;;24.00;49.80;;;;;;5031688;28;20219;-52
2022/11/15 11:33:15;;;;;;;5.63;3.22;;;23.90;49.80;;;;;;5032129;28;20291;-57
2022/11/15 11:36:00;;;;;;;4.75;3.13;;;23.90;49.90;;;;;;5029842;28;20200;-51
2022/11/15 11:38:53;;;;;;;4.55;3.10;;;23.80;49.80;;;;;;5031518;28;20200;-52
2022/11/15 11:41:52;;;;;;;5.35;3.22;;;23.80;49.80;;;;;;5026477;28;20216;-55
2022/11/15 11:44:34;;;;;;;5.60;3.65;;;23.80;49.80;;;;;;5016944;28;20214;-49
2022/11/15 11:47:09;;;;;;;4.20;3.13;;;23.80;49.80;;;;;;5051595;28;20207;-55
2022/11/15 11:49:47;;;;;;;4.60;2.63;;;23.80;49.80;;;;;;5051368;28;20580;-55
2022/11/15 11:52:26;;;;;;;4.03;3.03;;;23.80;49.80;;;;;;5051626;28;20663;-58
2022/11/15 11:55:03;;;;;;;3.78;2.80;;;23.80;49.80;;;;;;5050739;28;20199;-58
2022/11/15 11:57:42;;;;;;;4.38;3.00;;;23.80;49.90;;;;;;5050909;28;20226;-56
2022/11/15 12:00:21;;;;;;;4.05;3.35;;;23.70;49.90;;;;;;5051536;28;20572;-55
2022/11/15 12:03:00;;;;;;;4.65;3.30;;;23.70;49.90;;;;;;5031343;28;20562;-50
2022/11/15 12:05:38;;;;;;;5.00;2.72;;;23.70;49.90;;;;;;5031209;28;20207;-52
2022/11/15 12:08:26;;;;;;;4.13;3.08;;;23.70;50.00;;;;;;5031938;28;20200;-51
2022/11/15 12:11:05;;;;;;;3.53;2.80;;;23.60;50.00;;;;;;5030717;28;20278;-54
2022/11/15 12:13:37;;;;;;;4.30;2.72;;;23.60;50.00;;;;;;5030477;28;20192;-58
2022/11/15 12:16:18;;;;;;;3.70;2.90;;;23.50;50.00;;;;;;5031467;28;20577;-53
2022/11/15 12:18:55;;;;;;;3.53;2.80;;;23.50;50.00;;;;;;5031488;28;20198;-50
2022/11/15 12:21:37;;;;;;;4.80;2.83;;;23.50;50.00;;;;;;5032825;28;20224;-56
2022/11/15 12:24:13;;;;;;;4.82;2.80;;;23.50;50.00;;;;;;5031347;28;20203;-57
2022/11/15 12:26:48;;;;;;;5.20;2.80;;;23.50;50.00;;;;;;5031558;28;20198;-49
2022/11/15 12:29:29;;;;;;;4.22;2.75;;;23.50;50.00;;;;;;5031930;28;20596;-56
2022/11/15 12:32:03;;;;;;;4.53;2.90;;;23.50;50.00;;;;;;5031877;28;20220;-53
2022/11/15 12:34:47;;;;;;;3.83;2.83;;;23.50;50.00;;;;;;5031083;28;20200;-49
2022/11/15 12:37:49;;;;;;;4.10;2.70;;;23.40;50.00;;;;;;5031348;28;20220;-48
2022/11/15 12:40:40;;;;;;;4.20;2.80;;;23.40;50.00;;;;;;5019159;28;20626;-50
2022/11/15 12:43:42;;;;;;;5.53;2.50;;;23.40;50.10;;;;;;5011799;28;20200;-51
2022/11/15 12:46:46;;;;;;;5.28;3.30;;;23.40;50.20;;;;;;5011699;28;20204;-55
2022/11/15 12:49:47;;;;;;;4.25;3.00;;;23.30;50.10;;;;;;5011386;28;20200;-51
2022/11/15 12:52:18;;;;;;;3.80;2.83;;;23.30;50.10;;;;;;5011523;28;20204;-55
2022/11/15 12:55:04;;;;;;;5.05;3.05;;;23.30;50.20;;;;;;5011709;28;20204;-53
2022/11/15 12:57:45;;;;;;;3.85;2.70;;;23.30;50.20;;;;;;5011477;28;20228;-56
2022/11/15 13:00:48;;;;;;;3.85;3.13;;;23.30;50.20;;;;;;5011455;28;20308;-52
2022/11/15 13:03:32;;;;;;;4.15;2.65;;;23.20;50.20;;;;;;5013848;28;20199;-53
2022/11/15 13:06:33;;;;;;;4.35;3.05;;;23.20;50.10;;;;;;5025606;28;20210;-58
2022/11/15 13:09:03;;;;;;;3.65;2.70;;;23.20;50.10;;;;;;5031207;28;20225;-56
2022/11/15 13:11:53;;;;;;;4.88;2.70;;;23.20;50.20;;;;;;5030796;28;20216;-58
2022/11/15 13:14:43;;;;;;;3.88;2.65;;;23.20;50.20;;;;;;5031020;28;20203;-49
2022/11/15 13:17:35;;;;;;;2.95;2.60;;;23.10;50.20;;;;;;5030877;28;20224;-52
2022/11/15 13:20:33;;;;;;;3.47;2.97;;;23.10;50.30;;;;;;5031029;28;20226;-51
2022/11/15 13:23:08;;;;;;;3.47;2.88;;;23.00;50.30;;;;;;5031448;28;20586;-49
2022/11/15 13:26:11;;;;;;;4.07;2.58;;;23.00;50.30;;;;;;5031240;28;20201;-53
2022/11/15 13:28:49;;;;;;;3.70;2.80;;;23.00;50.40;;;;;;5027327;28;20199;-50
2022/11/15 13:31:37;;;;;;;2.72;2.40;;;23.00;50.40;;;;;;5030750;28;20211;-51
2022/11/15 13:34:25;;;;;;;4.85;2.85;;;23.00;50.50;;;;;;5030387;28;20209;-57
2022/11/15 13:36:55;;;;;;;5.50;3.00;;;22.90;50.40;;;;;;5011725;28;20220;-51
2022/11/15 13:39:33;;;;;;;3.13;2.72;;;23.00;50.40;;;;;;5014674;28;20192;-55
2022/11/15 13:42:04;;;;;;;3.35;2.33;;;22.90;50.40;;;;;;5014443;28;20217;-54
2022/11/15 13:44:37;;;;;;;4.55;2.90;;;22.90;50.40;;;;;;5014785;28;20197;-53